sensor_id;sensor_type;location;lat;lon;timestamp;pressure;altitude;pressure_sealevel;temperature;humidity
17615;BME280;8926;49.720;6.576;2024-01-07T00:00:22;99408.31;;;6.03;77.46
17615;BME280;8926;49.720;6.576;2024-01-07T00:02:48;99415.25;;;6.02;77.10
17615;BME280;8926;49.720;6.576;2024-01-07T00:05:13;99416.94;;;6.03;77.59
17615;BME280;8926;49.720;6.576;2024-01-07T00:07:38;99420.31;;;6.05;76.84
17615;BME280;8926;49.720;6.576;2024-01-07T00:10:04;99422.13;;;6.03;77.26
17615;BME280;8926;49.720;6.576;2024-01-07T00:12:30;99420.44;;;6.02;76.79
17615;BME280;8926;49.720;6.576;2024-01-07T00:14:56;99423.03;;;6.02;77.22
17615;BME280;8926;49.720;6.576;2024-01-07T00:17:21;99424.06;;;5.98;77.29
17615;BME280;8926;49.720;6.576;2024-01-07T00:19:46;99432.78;;;5.97;77.36
17615;BME280;8926;49.720;6.576;2024-01-07T00:22:11;99427.59;;;5.97;77.76
17615;BME280;8926;49.720;6.576;2024-01-07T00:24:36;99433.53;;;5.99;76.92
17615;BME280;8926;49.720;6.576;2024-01-07T00:27:02;99429.53;;;5.92;77.31
17615;BME280;8926;49.720;6.576;2024-01-07T00:29:27;99433.03;;;5.91;77.48
17615;BME280;8926;49.720;6.576;2024-01-07T00:31:52;99433.75;;;5.95;77.35
17615;BME280;8926;49.720;6.576;2024-01-07T00:34:18;99438.72;;;5.99;77.43
17615;BME280;8926;49.720;6.576;2024-01-07T00:36:43;99439.63;;;5.98;77.60
17615;BME280;8926;49.720;6.576;2024-01-07T00:39:08;99441.31;;;5.99;76.86
17615;BME280;8926;49.720;6.576;2024-01-07T00:41:33;99442.38;;;5.95;77.18
17615;BME280;8926;49.720;6.576;2024-01-07T00:43:59;99443.41;;;5.91;76.61
17615;BME280;8926;49.720;6.576;2024-01-07T00:46:24;99448.69;;;5.88;76.67
17615;BME280;8926;49.720;6.576;2024-01-07T00:48:49;99454.75;;;5.89;76.77
17615;BME280;8926;49.720;6.576;2024-01-07T00:51:14;99459.03;;;5.88;77.59
17615;BME280;8926;49.720;6.576;2024-01-07T00:53:39;99454.69;;;5.90;77.17
17615;BME280;8926;49.720;6.576;2024-01-07T00:56:05;99459.03;;;5.88;76.93
17615;BME280;8926;49.720;6.576;2024-01-07T00:58:30;99452.31;;;5.84;76.08
17615;BME280;8926;49.720;6.576;2024-01-07T01:00:55;99454.13;;;5.82;76.92
17615;BME280;8926;49.720;6.576;2024-01-07T01:03:21;99457.44;;;5.86;76.81
17615;BME280;8926;49.720;6.576;2024-01-07T01:05:46;99452.31;;;5.84;76.89
17615;BME280;8926;49.720;6.576;2024-01-07T01:08:11;99458.47;;;5.82;77.26
17615;BME280;8926;49.720;6.576;2024-01-07T01:10:36;99460.22;;;5.81;76.68
17615;BME280;8926;49.720;6.576;2024-01-07T01:13:01;99473.16;;;5.81;76.60
17615;BME280;8926;49.720;6.576;2024-01-07T01:15:27;99473.41;;;5.75;76.48
17615;BME280;8926;49.720;6.576;2024-01-07T01:17:52;99475.09;;;5.76;76.70
17615;BME280;8926;49.720;6.576;2024-01-07T01:20:17;99475.09;;;5.76;76.47
17615;BME280;8926;49.720;6.576;2024-01-07T01:22:42;99475.16;;;5.74;76.82
17615;BME280;8926;49.720;6.576;2024-01-07T01:25:08;99478.72;;;5.72;76.63
17615;BME280;8926;49.720;6.576;2024-01-07T01:27:33;99478.59;;;5.75;76.79
17615;BME280;8926;49.720;6.576;2024-01-07T01:29:58;99485.59;;;5.73;76.69
17615;BME280;8926;49.720;6.576;2024-01-07T01:32:23;99481.53;;;5.67;75.95
17615;BME280;8926;49.720;6.576;2024-01-07T01:34:48;99489.94;;;5.72;76.89
17615;BME280;8926;49.720;6.576;2024-01-07T01:37:14;99490.78;;;5.73;76.93
17615;BME280;8926;49.720;6.576;2024-01-07T01:39:40;99490.88;;;5.71;76.14
17615;BME280;8926;49.720;6.576;2024-01-07T01:42:06;99489.09;;;5.72;76.96
17615;BME280;8926;49.720;6.576;2024-01-07T01:44:31;99488.41;;;5.68;76.58
17615;BME280;8926;49.720;6.576;2024-01-07T01:46:56;99488.34;;;5.70;76.56
17615;BME280;8926;49.720;6.576;2024-01-07T01:49:22;99485.59;;;5.73;76.56
17615;BME280;8926;49.720;6.576;2024-01-07T01:51:47;99492.47;;;5.74;76.60
17615;BME280;8926;49.720;6.576;2024-01-07T01:54:13;99495.84;;;5.76;76.50
17615;BME280;8926;49.720;6.576;2024-01-07T01:56:38;99500.28;;;5.72;75.90
17615;BME280;8926;49.720;6.576;2024-01-07T01:59:03;99503.88;;;5.70;76.32
17615;BME280;8926;49.720;6.576;2024-01-07T02:01:28;99501.41;;;5.67;77.17
17615;BME280;8926;49.720;6.576;2024-01-07T02:03:53;99494.53;;;5.66;76.86
17615;BME280;8926;49.720;6.576;2024-01-07T02:06:19;99503.34;;;5.62;76.79
17615;BME280;8926;49.720;6.576;2024-01-07T02:08:45;99508.88;;;5.53;76.45
17615;BME280;8926;49.720;6.576;2024-01-07T02:11:17;99503.59;;;5.56;77.38
17615;BME280;8926;49.720;6.576;2024-01-07T02:13:42;99500.94;;;5.57;76.93
17615;BME280;8926;49.720;6.576;2024-01-07T02:16:08;99512.97;;;5.58;76.37
17615;BME280;8926;49.720;6.576;2024-01-07T02:18:33;99500.44;;;5.47;75.96
17615;BME280;8926;49.720;6.576;2024-01-07T02:20:58;99501.28;;;5.48;76.51
17615;BME280;8926;49.720;6.576;2024-01-07T02:23:23;99498.91;;;5.43;76.94
17615;BME280;8926;49.720;6.576;2024-01-07T02:25:49;99497.84;;;5.47;76.73
17615;BME280;8926;49.720;6.576;2024-01-07T02:28:14;99505.16;;;5.38;76.86
17615;BME280;8926;49.720;6.576;2024-01-07T02:30:39;99498.41;;;5.34;78.59
17615;BME280;8926;49.720;6.576;2024-01-07T02:33:04;99508.03;;;5.30;78.86
17615;BME280;8926;49.720;6.576;2024-01-07T02:35:29;99512.31;;;5.31;78.96
17615;BME280;8926;49.720;6.576;2024-01-07T02:37:55;99500.94;;;5.35;78.53
17615;BME280;8926;49.720;6.576;2024-01-07T02:40:20;99508.84;;;5.32;79.46
17615;BME280;8926;49.720;6.576;2024-01-07T02:42:45;99495.75;;;5.35;78.44
17615;BME280;8926;49.720;6.576;2024-01-07T02:45:10;99502.63;;;5.36;79.79
17615;BME280;8926;49.720;6.576;2024-01-07T02:47:35;99500.16;;;5.33;79.46
17615;BME280;8926;49.720;6.576;2024-01-07T02:50:01;99502.75;;;5.33;79.46
17615;BME280;8926;49.720;6.576;2024-01-07T02:52:26;99508.03;;;5.30;78.04
17615;BME280;8926;49.720;6.576;2024-01-07T02:54:51;99506.13;;;5.35;77.91
17615;BME280;8926;49.720;6.576;2024-01-07T02:57:16;99508.53;;;5.40;77.50
17615;BME280;8926;49.720;6.576;2024-01-07T02:59:41;99507.59;;;5.42;77.11
17615;BME280;8926;49.720;6.576;2024-01-07T03:02:07;99509.50;;;5.37;77.28
17615;BME280;8926;49.720;6.576;2024-01-07T03:04:32;99511.31;;;5.35;76.93
17615;BME280;8926;49.720;6.576;2024-01-07T03:06:57;99507.94;;;5.33;77.79
17615;BME280;8926;49.720;6.576;2024-01-07T03:09:23;99518.28;;;5.33;77.14
17615;BME280;8926;49.720;6.576;2024-01-07T03:11:48;99516.59;;;5.32;77.19
17615;BME280;8926;49.720;6.576;2024-01-07T03:14:13;99526.72;;;5.38;77.88
17615;BME280;8926;49.720;6.576;2024-01-07T03:16:38;99515.53;;;5.38;77.09
17615;BME280;8926;49.720;6.576;2024-01-07T03:19:04;99527.81;;;5.33;77.68
17615;BME280;8926;49.720;6.576;2024-01-07T03:21:29;99521.00;;;5.30;77.58
17615;BME280;8926;49.720;6.576;2024-01-07T03:23:55;99525.16;;;5.34;77.85
17615;BME280;8926;49.720;6.576;2024-01-07T03:26:20;99525.03;;;5.37;77.06
17615;BME280;8926;49.720;6.576;2024-01-07T03:28:45;99525.16;;;5.34;77.11
17615;BME280;8926;49.720;6.576;2024-01-07T03:31:11;99523.47;;;5.33;76.95
17615;BME280;8926;49.720;6.576;2024-01-07T03:33:37;99522.63;;;5.33;77.59
17615;BME280;8926;49.720;6.576;2024-01-07T03:36:06;99524.31;;;5.34;77.29
17615;BME280;8926;49.720;6.576;2024-01-07T03:38:31;99531.28;;;5.32;76.73
17615;BME280;8926;49.720;6.576;2024-01-07T03:40:56;99525.28;;;5.31;77.11
17615;BME280;8926;49.720;6.576;2024-01-07T03:43:21;99527.81;;;5.33;77.33
17615;BME280;8926;49.720;6.576;2024-01-07T03:45:47;99534.78;;;5.31;77.07
17615;BME280;8926;49.720;6.576;2024-01-07T03:48:14;99526.97;;;5.32;77.62
17615;BME280;8926;49.720;6.576;2024-01-07T03:50:39;99528.53;;;5.36;77.81
17615;BME280;8926;49.720;6.576;2024-01-07T03:53:04;99532.81;;;5.37;77.27
17615;BME280;8926;49.720;6.576;2024-01-07T03:55:30;99531.19;;;5.35;77.59
17615;BME280;8926;49.720;6.576;2024-01-07T03:57:55;99532.13;;;5.32;77.51
17615;BME280;8926;49.720;6.576;2024-01-07T04:00:20;99542.63;;;5.29;77.45
17615;BME280;8926;49.720;6.576;2024-01-07T04:02:45;99537.56;;;5.26;77.10
17615;BME280;8926;49.720;6.576;2024-01-07T04:05:10;99542.63;;;5.29;76.90
17615;BME280;8926;49.720;6.576;2024-01-07T04:07:36;99535.88;;;5.25;76.92
17615;BME280;8926;49.720;6.576;2024-01-07T04:10:01;99539.13;;;5.30;77.05
17615;BME280;8926;49.720;6.576;2024-01-07T04:12:26;99539.25;;;5.27;77.84
17615;BME280;8926;49.720;6.576;2024-01-07T04:14:51;99545.44;;;5.23;76.41
17615;BME280;8926;49.720;6.576;2024-01-07T04:17:17;99551.66;;;5.19;77.50
17615;BME280;8926;49.720;6.576;2024-01-07T04:19:42;99552.41;;;5.21;78.05
17615;BME280;8926;49.720;6.576;2024-01-07T04:22:07;99557.31;;;5.29;78.09
17615;BME280;8926;49.720;6.576;2024-01-07T04:24:32;99558.16;;;5.29;77.81
17615;BME280;8926;49.720;6.576;2024-01-07T04:26:57;99563.44;;;5.26;77.25
17615;BME280;8926;49.720;6.576;2024-01-07T04:29:23;99555.00;;;5.21;76.68
17615;BME280;8926;49.720;6.576;2024-01-07T04:31:48;99561.09;;;5.20;76.77
17615;BME280;8926;49.720;6.576;2024-01-07T04:34:14;99568.75;;;5.23;77.51
17615;BME280;8926;49.720;6.576;2024-01-07T04:36:39;99570.53;;;5.21;76.81
17615;BME280;8926;49.720;6.576;2024-01-07T04:39:04;99568.63;;;5.26;77.48
17615;BME280;8926;49.720;6.576;2024-01-07T04:41:29;99568.84;;;5.20;76.69
17615;BME280;8926;49.720;6.576;2024-01-07T04:43:54;99569.00;;;5.17;77.22
17615;BME280;8926;49.720;6.576;2024-01-07T04:46:20;99573.97;;;5.22;77.53
17615;BME280;8926;49.720;6.576;2024-01-07T04:48:45;99573.13;;;5.21;77.47
17615;BME280;8926;49.720;6.576;2024-01-07T04:51:10;99577.56;;;5.19;77.54
17615;BME280;8926;49.720;6.576;2024-01-07T04:53:35;99572.38;;;5.19;78.25
17615;BME280;8926;49.720;6.576;2024-01-07T04:56:01;99584.28;;;5.23;77.38
17615;BME280;8926;49.720;6.576;2024-01-07T04:58:26;99579.78;;;5.28;77.30
17615;BME280;8926;49.720;6.576;2024-01-07T05:00:51;99589.34;;;5.26;77.14
17615;BME280;8926;49.720;6.576;2024-01-07T05:03:16;99582.47;;;5.25;77.15
17615;BME280;8926;49.720;6.576;2024-01-07T05:05:41;99591.16;;;5.24;77.54
17615;BME280;8926;49.720;6.576;2024-01-07T05:08:06;99589.22;;;5.29;78.04
17615;BME280;8926;49.720;6.576;2024-01-07T05:10:32;99591.03;;;5.27;77.03
17615;BME280;8926;49.720;6.576;2024-01-07T05:12:57;99591.03;;;5.27;76.95
17615;BME280;8926;49.720;6.576;2024-01-07T05:15:23;99593.72;;;5.24;77.80
17615;BME280;8926;49.720;6.576;2024-01-07T05:17:48;99585.97;;;5.24;77.40
17615;BME280;8926;49.720;6.576;2024-01-07T05:20:15;99593.16;;;5.18;77.32
17615;BME280;8926;49.720;6.576;2024-01-07T05:22:40;99592.25;;;5.19;77.99
17615;BME280;8926;49.720;6.576;2024-01-07T05:25:05;99601.75;;;5.18;78.00
17615;BME280;8926;49.720;6.576;2024-01-07T05:27:31;99610.28;;;5.20;77.26
17615;BME280;8926;49.720;6.576;2024-01-07T05:29:56;99617.28;;;5.18;77.20
17615;BME280;8926;49.720;6.576;2024-01-07T05:32:21;99622.47;;;5.18;78.13
17615;BME280;8926;49.720;6.576;2024-01-07T05:34:46;99608.63;;;5.19;77.88
17615;BME280;8926;49.720;6.576;2024-01-07T05:37:11;99614.91;;;5.12;77.13
17615;BME280;8926;49.720;6.576;2024-01-07T05:39:37;99610.75;;;5.08;77.36
17615;BME280;8926;49.720;6.576;2024-01-07T05:42:02;99610.84;;;5.05;78.18
17615;BME280;8926;49.720;6.576;2024-01-07T05:44:27;99616.16;;;5.02;77.70
17615;BME280;8926;49.720;6.576;2024-01-07T05:46:52;99607.59;;;5.00;77.89
17615;BME280;8926;49.720;6.576;2024-01-07T05:49:18;99616.19;;;5.00;78.05
17615;BME280;8926;49.720;6.576;2024-01-07T05:51:43;99617.84;;;5.03;77.77
17615;BME280;8926;49.720;6.576;2024-01-07T05:54:08;99617.84;;;5.03;77.85
17615;BME280;8926;49.720;6.576;2024-01-07T05:56:39;99618.72;;;5.02;77.67
17615;BME280;8926;49.720;6.576;2024-01-07T05:59:08;99616.94;;;5.04;78.43
17615;BME280;8926;49.720;6.576;2024-01-07T06:01:33;99626.44;;;5.03;77.58
17615;BME280;8926;49.720;6.576;2024-01-07T06:03:58;99619.63;;;5.01;78.89
17615;BME280;8926;49.720;6.576;2024-01-07T06:06:23;99626.50;;;5.02;77.37
17615;BME280;8926;49.720;6.576;2024-01-07T06:08:48;99622.00;;;5.07;78.12
17615;BME280;8926;49.720;6.576;2024-01-07T06:11:14;99626.38;;;5.05;77.84
17615;BME280;8926;49.720;6.576;2024-01-07T06:13:44;99634.44;;;4.97;78.28
17615;BME280;8926;49.720;6.576;2024-01-07T06:16:09;99637.97;;;4.95;78.48
17615;BME280;8926;49.720;6.576;2024-01-07T06:18:34;99640.56;;;4.95;77.62
17615;BME280;8926;49.720;6.576;2024-01-07T06:20:59;99642.47;;;4.90;78.11
17615;BME280;8926;49.720;6.576;2024-01-07T06:23:24;99641.63;;;4.89;78.93
17615;BME280;8926;49.720;6.576;2024-01-07T06:25:50;99644.19;;;4.91;78.15
17615;BME280;8926;49.720;6.576;2024-01-07T06:28:15;99649.22;;;4.94;78.08
17615;BME280;8926;49.720;6.576;2024-01-07T06:30:40;99649.22;;;4.94;79.17
17615;BME280;8926;49.720;6.576;2024-01-07T06:33:05;99663.09;;;4.93;78.88
17615;BME280;8926;49.720;6.576;2024-01-07T06:35:30;99664.75;;;4.94;78.39
17615;BME280;8926;49.720;6.576;2024-01-07T06:37:56;99666.63;;;4.90;79.09
17615;BME280;8926;49.720;6.576;2024-01-07T06:40:21;99669.81;;;4.97;79.48
17615;BME280;8926;49.720;6.576;2024-01-07T06:42:47;99676.78;;;4.95;78.67
17615;BME280;8926;49.720;6.576;2024-01-07T06:45:13;99677.69;;;4.94;79.20
17615;BME280;8926;49.720;6.576;2024-01-07T06:47:39;99677.78;;;4.92;79.71
17615;BME280;8926;49.720;6.576;2024-01-07T06:50:05;99681.03;;;4.97;78.80
17615;BME280;8926;49.720;6.576;2024-01-07T06:52:30;99683.56;;;4.99;78.41
17615;BME280;8926;49.720;6.576;2024-01-07T06:54:56;99687.03;;;4.98;79.28
17615;BME280;8926;49.720;6.576;2024-01-07T06:57:21;99683.59;;;4.97;79.45
17615;BME280;8926;49.720;6.576;2024-01-07T06:59:46;99687.13;;;4.95;79.83
17615;BME280;8926;49.720;6.576;2024-01-07T07:02:11;99688.00;;;4.95;78.86
17615;BME280;8926;49.720;6.576;2024-01-07T07:04:37;99691.56;;;4.93;79.34
17615;BME280;8926;49.720;6.576;2024-01-07T07:07:02;99690.63;;;4.94;79.36
17615;BME280;8926;49.720;6.576;2024-01-07T07:09:27;99704.38;;;4.96;79.17
17615;BME280;8926;49.720;6.576;2024-01-07T07:11:52;99702.56;;;4.98;79.33
17615;BME280;8926;49.720;6.576;2024-01-07T07:14:18;99702.56;;;4.98;79.22
17615;BME280;8926;49.720;6.576;2024-01-07T07:16:43;99705.16;;;4.98;78.58
17615;BME280;8926;49.720;6.576;2024-01-07T07:19:08;99703.56;;;4.94;78.71
17615;BME280;8926;49.720;6.576;2024-01-07T07:21:33;99703.69;;;4.91;79.55
17615;BME280;8926;49.720;6.576;2024-01-07T07:23:59;99704.38;;;4.96;79.85
17615;BME280;8926;49.720;6.576;2024-01-07T07:26:24;99714.50;;;5.02;79.48
17615;BME280;8926;49.720;6.576;2024-01-07T07:28:49;99713.66;;;5.01;78.49
17615;BME280;8926;49.720;6.576;2024-01-07T07:31:14;99711.13;;;5.00;78.93
17615;BME280;8926;49.720;6.576;2024-01-07T07:33:40;99712.81;;;5.01;78.43
17615;BME280;8926;49.720;6.576;2024-01-07T07:36:05;99717.91;;;5.04;79.19
17615;BME280;8926;49.720;6.576;2024-01-07T07:38:30;99726.56;;;5.03;79.02
17615;BME280;8926;49.720;6.576;2024-01-07T07:40:55;99723.06;;;5.04;78.56
17615;BME280;8926;49.720;6.576;2024-01-07T07:43:21;99729.06;;;5.06;78.64
17615;BME280;8926;49.720;6.576;2024-01-07T07:45:46;99731.59;;;5.07;79.20
17615;BME280;8926;49.720;6.576;2024-01-07T07:48:12;99728.94;;;5.09;78.87
17615;BME280;8926;49.720;6.576;2024-01-07T07:50:37;99731.44;;;5.12;78.36
17615;BME280;8926;49.720;6.576;2024-01-07T07:53:02;99738.25;;;5.15;79.12
17615;BME280;8926;49.720;6.576;2024-01-07T07:55:27;99739.88;;;5.17;78.66
17615;BME280;8926;49.720;6.576;2024-01-07T07:57:53;99738.09;;;5.19;78.28
17615;BME280;8926;49.720;6.576;2024-01-07T08:00:18;99747.53;;;5.20;78.66
17615;BME280;8926;49.720;6.576;2024-01-07T08:02:44;99744.94;;;5.20;78.06
17615;BME280;8926;49.720;6.576;2024-01-07T08:05:09;99746.56;;;5.23;78.83
17615;BME280;8926;49.720;6.576;2024-01-07T08:07:34;99750.81;;;5.25;77.78
17615;BME280;8926;49.720;6.576;2024-01-07T08:09:59;99760.38;;;5.23;77.98
17615;BME280;8926;49.720;6.576;2024-01-07T08:12:25;99753.28;;;5.28;78.73
17615;BME280;8926;49.720;6.576;2024-01-07T08:14:50;99754.25;;;5.26;77.75
17615;BME280;8926;49.720;6.576;2024-01-07T08:17:15;99758.56;;;5.25;78.36
17615;BME280;8926;49.720;6.576;2024-01-07T08:19:40;99756.03;;;5.24;77.70
17615;BME280;8926;49.720;6.576;2024-01-07T08:22:05;99758.47;;;5.28;77.67
17615;BME280;8926;49.720;6.576;2024-01-07T08:24:31;99757.63;;;5.28;77.55
17615;BME280;8926;49.720;6.576;2024-01-07T08:26:56;99765.34;;;5.29;78.45
17615;BME280;8926;49.720;6.576;2024-01-07T08:29:21;99771.22;;;5.34;77.83
17615;BME280;8926;49.720;6.576;2024-01-07T08:31:46;99762.44;;;5.38;77.88
17615;BME280;8926;49.720;6.576;2024-01-07T08:34:11;99762.50;;;5.37;77.62
17615;BME280;8926;49.720;6.576;2024-01-07T08:36:37;99774.44;;;5.41;77.90
17615;BME280;8926;49.720;6.576;2024-01-07T08:39:03;99776.97;;;5.42;78.32
17615;BME280;8926;49.720;6.576;2024-01-07T08:41:28;99779.56;;;5.42;77.93
17615;BME280;8926;49.720;6.576;2024-01-07T08:43:53;99783.97;;;5.40;78.02
17615;BME280;8926;49.720;6.576;2024-01-07T08:46:22;99782.25;;;5.39;77.34
17615;BME280;8926;49.720;6.576;2024-01-07T08:48:47;99780.53;;;5.40;78.04
17615;BME280;8926;49.720;6.576;2024-01-07T08:51:12;99789.19;;;5.39;77.54
17615;BME280;8926;49.720;6.576;2024-01-07T08:53:38;99792.63;;;5.39;77.80
17615;BME280;8926;49.720;6.576;2024-01-07T08:56:04;99793.41;;;5.41;77.07
17615;BME280;8926;49.720;6.576;2024-01-07T08:58:29;99796.00;;;5.41;77.69
17615;BME280;8926;49.720;6.576;2024-01-07T09:00:54;99787.34;;;5.42;77.78
17615;BME280;8926;49.720;6.576;2024-01-07T09:03:20;99799.41;;;5.43;76.89
17615;BME280;8926;49.720;6.576;2024-01-07T09:05:45;99795.91;;;5.44;77.81
17615;BME280;8926;49.720;6.576;2024-01-07T09:08:10;99801.09;;;5.44;77.17
17615;BME280;8926;49.720;6.576;2024-01-07T09:10:36;99805.28;;;5.47;77.14
17615;BME280;8926;49.720;6.576;2024-01-07T09:13:02;99810.59;;;5.44;77.23
17615;BME280;8926;49.720;6.576;2024-01-07T09:15:27;99812.41;;;5.42;76.89
17615;BME280;8926;49.720;6.576;2024-01-07T09:17:53;99813.00;;;5.49;77.22
17615;BME280;8926;49.720;6.576;2024-01-07T09:20:18;99806.13;;;5.47;76.66
17615;BME280;8926;49.720;6.576;2024-01-07T09:22:44;99819.16;;;5.46;76.13
17615;BME280;8926;49.720;6.576;2024-01-07T09:25:10;99817.47;;;5.45;76.15
17615;BME280;8926;49.720;6.576;2024-01-07T09:27:36;99825.16;;;5.46;76.98
17615;BME280;8926;49.720;6.576;2024-01-07T09:30:01;99821.56;;;5.51;76.57
17615;BME280;8926;49.720;6.576;2024-01-07T09:32:26;99827.09;;;5.41;75.52
17615;BME280;8926;49.720;6.576;2024-01-07T09:34:52;99823.50;;;5.45;76.37
17615;BME280;8926;49.720;6.576;2024-01-07T09:37:17;99831.53;;;5.38;76.45
17615;BME280;8926;49.720;6.576;2024-01-07T09:39:42;99828.91;;;5.39;76.54
17615;BME280;8926;49.720;6.576;2024-01-07T09:42:11;99835.78;;;5.40;76.52
17615;BME280;8926;49.720;6.576;2024-01-07T09:44:37;99837.47;;;5.41;76.59
17615;BME280;8926;49.720;6.576;2024-01-07T09:47:02;99837.47;;;5.41;75.90
17615;BME280;8926;49.720;6.576;2024-01-07T09:49:29;99844.44;;;5.39;75.63
17615;BME280;8926;49.720;6.576;2024-01-07T09:51:54;99846.44;;;5.31;76.05
17615;BME280;8926;49.720;6.576;2024-01-07T09:54:21;99848.03;;;5.35;76.00
17615;BME280;8926;49.720;6.576;2024-01-07T09:56:50;99853.31;;;5.32;76.22
17615;BME280;8926;49.720;6.576;2024-01-07T09:59:16;99856.13;;;5.25;75.57
17615;BME280;8926;49.720;6.576;2024-01-07T10:01:42;99849.28;;;5.24;76.66
17615;BME280;8926;49.720;6.576;2024-01-07T10:04:08;99846.84;;;5.19;76.74
17615;BME280;8926;49.720;6.576;2024-01-07T10:06:33;99853.81;;;5.17;76.66
17615;BME280;8926;49.720;6.576;2024-01-07T10:08:58;99852.13;;;5.16;76.49
17615;BME280;8926;49.720;6.576;2024-01-07T10:11:24;99851.91;;;5.22;76.63
17615;BME280;8926;49.720;6.576;2024-01-07T10:13:49;99859.00;;;5.17;77.53
17615;BME280;8926;49.720;6.576;2024-01-07T10:16:16;99855.63;;;5.15;77.55
17615;BME280;8926;49.720;6.576;2024-01-07T10:18:42;99863.69;;;5.06;78.02
17615;BME280;8926;49.720;6.576;2024-01-07T10:21:07;99868.06;;;5.04;78.27
17615;BME280;8926;49.720;6.576;2024-01-07T10:23:32;99862.88;;;5.04;78.32
17615;BME280;8926;49.720;6.576;2024-01-07T10:25:58;99862.88;;;5.04;79.60
17615;BME280;8926;49.720;6.576;2024-01-07T10:28:23;99857.69;;;5.04;78.80
17615;BME280;8926;49.720;6.576;2024-01-07T10:30:49;99860.34;;;5.02;78.54
17615;BME280;8926;49.720;6.576;2024-01-07T10:33:16;99863.06;;;4.98;78.00
17615;BME280;8926;49.720;6.576;2024-01-07T10:35:41;99862.53;;;4.88;79.16
17615;BME280;8926;49.720;6.576;2024-01-07T10:38:10;99860.88;;;4.86;80.02
17615;BME280;8926;49.720;6.576;2024-01-07T10:40:36;99861.69;;;4.88;79.04
17615;BME280;8926;49.720;6.576;2024-01-07T10:43:03;99862.41;;;4.93;79.77
17615;BME280;8926;49.720;6.576;2024-01-07T10:45:29;99859.91;;;4.90;79.70
17615;BME280;8926;49.720;6.576;2024-01-07T10:47:56;99859.91;;;4.90;79.99
17615;BME280;8926;49.720;6.576;2024-01-07T10:50:24;99860.47;;;4.98;78.87
17615;BME280;8926;49.720;6.576;2024-01-07T10:52:57;99857.09;;;4.96;79.04
17615;BME280;8926;49.720;6.576;2024-01-07T10:55:22;99866.56;;;4.97;79.42
17615;BME280;8926;49.720;6.576;2024-01-07T10:57:51;99862.97;;;5.01;78.63
17615;BME280;8926;49.720;6.576;2024-01-07T11:00:17;99861.38;;;4.97;79.49
17615;BME280;8926;49.720;6.576;2024-01-07T11:02:54;99863.91;;;4.98;79.42
17615;BME280;8926;49.720;6.576;2024-01-07T11:05:30;99866.56;;;4.97;79.06
17615;BME280;8926;49.720;6.576;2024-01-07T11:11:37;99871.63;;;5.00;79.38
17615;BME280;8926;49.720;6.576;2024-01-07T11:13:37;99878.50;;;5.01;80.36
17615;BME280;8926;49.720;6.576;2024-01-07T11:16:03;99871.44;;;5.06;79.44
17615;BME280;8926;49.720;6.576;2024-01-07T11:18:30;99877.56;;;5.03;79.12
17615;BME280;8926;49.720;6.576;2024-01-07T11:20:59;99879.25;;;5.04;79.32
17615;BME280;8926;49.720;6.576;2024-01-07T11:23:32;99874.63;;;5.14;78.69
17615;BME280;8926;49.720;6.576;2024-01-07T11:25:58;99867.78;;;5.13;78.55
17615;BME280;8926;49.720;6.576;2024-01-07T11:31:07;99876.25;;;5.18;78.75
17615;BME280;8926;49.720;6.576;2024-01-07T11:33:34;99880.00;;;5.08;79.08
17615;BME280;8926;49.720;6.576;2024-01-07T11:36:01;99880.00;;;5.08;79.04
17615;BME280;8926;49.720;6.576;2024-01-07T11:38:27;99879.25;;;5.04;78.68
17615;BME280;8926;49.720;6.576;2024-01-07T11:40:52;99885.38;;;5.02;79.65
17615;BME280;8926;49.720;6.576;2024-01-07T11:43:18;99885.38;;;5.02;80.05
17615;BME280;8926;49.720;6.576;2024-01-07T11:45:43;99880.09;;;5.05;79.79
17615;BME280;8926;49.720;6.576;2024-01-07T11:48:08;99877.38;;;5.09;80.03
17615;BME280;8926;49.720;6.576;2024-01-07T11:50:34;99880.91;;;5.07;79.33
17615;BME280;8926;49.720;6.576;2024-01-07T11:53:00;99874.06;;;5.04;79.81
17615;BME280;8926;49.720;6.576;2024-01-07T11:55:25;99881.91;;;5.03;79.39
17615;BME280;8926;49.720;6.576;2024-01-07T11:57:50;99875.03;;;5.02;80.46
17615;BME280;8926;49.720;6.576;2024-01-07T12:00:17;99880.94;;;5.05;79.31
17615;BME280;8926;49.720;6.576;2024-01-07T12:02:42;99881.72;;;5.09;79.25
17615;BME280;8926;49.720;6.576;2024-01-07T12:05:07;99880.09;;;5.05;80.31
17615;BME280;8926;49.720;6.576;2024-01-07T12:07:32;99881.72;;;5.09;79.56
17615;BME280;8926;49.720;6.576;2024-01-07T12:09:58;99880.81;;;5.10;79.44
17615;BME280;8926;49.720;6.576;2024-01-07T12:12:23;99881.72;;;5.09;80.04
17615;BME280;8926;49.720;6.576;2024-01-07T12:14:48;99876.53;;;5.09;79.12
17615;BME280;8926;49.720;6.576;2024-01-07T12:17:16;99873.13;;;5.07;79.05
17615;BME280;8926;49.720;6.576;2024-01-07T12:19:42;99874.06;;;5.04;79.14
17615;BME280;8926;49.720;6.576;2024-01-07T12:22:07;99875.13;;;4.99;80.47
17615;BME280;8926;49.720;6.576;2024-01-07T12:24:32;99880.19;;;5.02;79.98
17615;BME280;8926;49.720;6.576;2024-01-07T12:27:03;99888.06;;;4.99;80.40
17615;BME280;8926;49.720;6.576;2024-01-07T12:29:28;99887.16;;;5.00;79.44
17615;BME280;8926;49.720;6.576;2024-01-07T12:31:53;99894.03;;;5.01;79.36
17615;BME280;8926;49.720;6.576;2024-01-07T12:34:20;99885.56;;;4.96;79.40
17615;BME280;8926;49.720;6.576;2024-01-07T12:36:45;99886.47;;;4.95;80.13
17615;BME280;8926;49.720;6.576;2024-01-07T12:39:12;99887.47;;;4.91;79.95
17615;BME280;8926;49.720;6.576;2024-01-07T12:41:37;99886.59;;;4.92;79.31
17615;BME280;8926;49.720;6.576;2024-01-07T12:44:02;99887.66;;;4.85;80.26
17615;BME280;8926;49.720;6.576;2024-01-07T12:46:28;99891.16;;;4.84;80.13
17615;BME280;8926;49.720;6.576;2024-01-07T12:48:53;99892.75;;;4.88;80.77
17615;BME280;8926;49.720;6.576;2024-01-07T12:51:19;99891.16;;;4.84;81.08
17615;BME280;8926;49.720;6.576;2024-01-07T12:53:44;99884.19;;;4.86;80.38
17615;BME280;8926;49.720;6.576;2024-01-07T12:56:09;99884.28;;;4.83;80.60
17615;BME280;8926;49.720;6.576;2024-01-07T12:58:34;99889.44;;;4.83;80.42
17615;BME280;8926;49.720;6.576;2024-01-07T13:01:00;99893.03;;;4.78;80.16
17615;BME280;8926;49.720;6.576;2024-01-07T13:03:25;99892.94;;;4.82;82.01
17615;BME280;8926;49.720;6.576;2024-01-07T13:05:50;99904.84;;;4.87;81.29
17615;BME280;8926;49.720;6.576;2024-01-07T13:08:16;99896.22;;;4.87;81.09
17615;BME280;8926;49.720;6.576;2024-01-07T13:10:44;99903.81;;;4.93;80.73
17615;BME280;8926;49.720;6.576;2024-01-07T13:13:09;99900.38;;;4.92;80.42
17615;BME280;8926;49.720;6.576;2024-01-07T13:15:35;99906.41;;;4.93;81.10
17615;BME280;8926;49.720;6.576;2024-01-07T13:18:00;99909.88;;;4.92;80.70